Minnehaha Springs, West Virginia
Current Conditions -  °F | °C
As of 1:55 PM on Monday 20 Oct 2014 (Local Time) from KHSP Reporting Station
Clear Clear  
Wind Chill: 54°   Ceiling: Unl
Heat Index: 54°   Visibility: 10mi
Dew Point: 36°   Wind: 12mph
Humidity: 50%   Direction: 260°W
Pressure: 29.98"   Gusts: 20mph
Location:  38.2213°N, 80.0565°W
Report Text: KHSP 201755Z AUTO 26010G17KT 10SM CLR 12/02 A2998 RMK AO2 6//// T01230020
Loading
Personal Weather Stations






























Interactive Weather Map New forecast layout! Learn more

10-Day Weather Forecast

Advertisements
Track Severe Weather on mobile